sensor_id;sensor_type;location;lat;lon;timestamp;temperature;humidity
20985;DHT22;10651;47.552;7.606;2023-12-07T06:29:04;4.10;99.90
20985;DHT22;10651;47.552;7.606;2023-12-07T06:31:33;4.10;99.90
20985;DHT22;10651;47.552;7.606;2023-12-07T06:33:59;4.10;99.90
20985;DHT22;10651;47.552;7.606;2023-12-07T06:36:26;4.10;99.90
20985;DHT22;10651;47.552;7.606;2023-12-07T06:38:52;4.20;99.90
20985;DHT22;10651;47.552;7.606;2023-12-07T06:41:18;4.20;99.90
20985;DHT22;10651;47.552;7.606;2023-12-07T06:43:44;4.20;99.90
20985;DHT22;10651;47.552;7.606;2023-12-07T06:46:13;4.20;99.90
20985;DHT22;10651;47.552;7.606;2023-12-07T06:48:40;4.20;99.90
20985;DHT22;10651;47.552;7.606;2023-12-07T06:51:06;4.20;99.90
20985;DHT22;10651;47.552;7.606;2023-12-07T06:53:32;4.20;99.90
20985;DHT22;10651;47.552;7.606;2023-12-07T06:55:58;5.00;99.90
20985;DHT22;10651;47.552;7.606;2023-12-07T06:58:24;5.20;99.90
20985;DHT22;10651;47.552;7.606;2023-12-07T07:00:50;5.00;99.90
20985;DHT22;10651;47.552;7.606;2023-12-07T07:03:16;4.80;99.90
20985;DHT22;10651;47.552;7.606;2023-12-07T07:05:42;4.60;99.90
20985;DHT22;10651;47.552;7.606;2023-12-07T07:08:08;4.50;99.90
20985;DHT22;10651;47.552;7.606;2023-12-07T07:10:34;4.30;99.90
20985;DHT22;10651;47.552;7.606;2023-12-07T07:13:01;4.30;99.90
20985;DHT22;10651;47.552;7.606;2023-12-07T07:15:32;4.30;99.90
20985;DHT22;10651;47.552;7.606;2023-12-07T07:17:58;4.20;99.90
20985;DHT22;10651;47.552;7.606;2023-12-07T07:20:25;4.30;99.90
20985;DHT22;10651;47.552;7.606;2023-12-07T07:22:51;4.30;99.90
20985;DHT22;10651;47.552;7.606;2023-12-07T07:25:17;4.20;99.90
20985;DHT22;10651;47.552;7.606;2023-12-07T07:27:45;4.20;99.90
20985;DHT22;10651;47.552;7.606;2023-12-07T07:30:12;4.20;99.90
20985;DHT22;10651;47.552;7.606;2023-12-07T07:32:38;4.20;99.90
20985;DHT22;10651;47.552;7.606;2023-12-07T07:35:04;4.20;99.90
20985;DHT22;10651;47.552;7.606;2023-12-07T07:37:29;4.20;99.90
20985;DHT22;10651;47.552;7.606;2023-12-07T07:39:55;4.50;99.90
20985;DHT22;10651;47.552;7.606;2023-12-07T07:42:21;4.80;99.90
20985;DHT22;10651;47.552;7.606;2023-12-07T07:44:46;4.70;99.90
20985;DHT22;10651;47.552;7.606;2023-12-07T07:47:12;4.60;99.90
20985;DHT22;10651;47.552;7.606;2023-12-07T07:49:38;4.60;99.90
20985;DHT22;10651;47.552;7.606;2023-12-07T07:52:04;4.70;99.90
20985;DHT22;10651;47.552;7.606;2023-12-07T07:54:30;4.80;99.90
20985;DHT22;10651;47.552;7.606;2023-12-07T07:56:56;4.90;99.90
20985;DHT22;10651;47.552;7.606;2023-12-07T07:59:22;5.00;99.90
20985;DHT22;10651;47.552;7.606;2023-12-07T08:01:48;5.00;99.90
20985;DHT22;10651;47.552;7.606;2023-12-07T08:04:13;4.90;99.90
20985;DHT22;10651;47.552;7.606;2023-12-07T08:06:39;4.80;99.90
20985;DHT22;10651;47.552;7.606;2023-12-07T08:09:08;4.80;99.90
20985;DHT22;10651;47.552;7.606;2023-12-07T08:11:37;4.80;99.90
20985;DHT22;10651;47.552;7.606;2023-12-07T08:14:02;4.80;99.90
20985;DHT22;10651;47.552;7.606;2023-12-07T08:16:28;4.90;99.90
20985;DHT22;10651;47.552;7.606;2023-12-07T08:18:54;4.90;99.90
20985;DHT22;10651;47.552;7.606;2023-12-07T08:21:23;4.80;99.90
20985;DHT22;10651;47.552;7.606;2023-12-07T08:23:49;5.00;99.90
20985;DHT22;10651;47.552;7.606;2023-12-07T08:26:15;5.10;99.90
20985;DHT22;10651;47.552;7.606;2023-12-07T08:28:41;5.20;99.90
20985;DHT22;10651;47.552;7.606;2023-12-07T08:31:07;5.40;99.90
20985;DHT22;10651;47.552;7.606;2023-12-07T08:33:33;5.40;99.90
20985;DHT22;10651;47.552;7.606;2023-12-07T08:36:04;5.40;99.90
20985;DHT22;10651;47.552;7.606;2023-12-07T08:38:30;5.50;99.90
20985;DHT22;10651;47.552;7.606;2023-12-07T08:40:55;5.60;99.90
20985;DHT22;10651;47.552;7.606;2023-12-07T08:43:24;5.70;99.90
20985;DHT22;10651;47.552;7.606;2023-12-07T08:45:52;5.70;99.90
20985;DHT22;10651;47.552;7.606;2023-12-07T08:48:21;5.80;99.90
20985;DHT22;10651;47.552;7.606;2023-12-07T08:50:47;6.00;99.90
20985;DHT22;10651;47.552;7.606;2023-12-07T08:53:13;6.20;99.90
20985;DHT22;10651;47.552;7.606;2023-12-07T08:55:39;6.40;99.90
20985;DHT22;10651;47.552;7.606;2023-12-07T08:58:05;6.40;99.90
20985;DHT22;10651;47.552;7.606;2023-12-07T09:00:32;6.70;99.90
20985;DHT22;10651;47.552;7.606;2023-12-07T09:02:58;6.90;99.90
20985;DHT22;10651;47.552;7.606;2023-12-07T09:05:26;7.00;99.90
20985;DHT22;10651;47.552;7.606;2023-12-07T09:07:52;7.00;99.90
20985;DHT22;10651;47.552;7.606;2023-12-07T09:10:19;6.90;99.90
20985;DHT22;10651;47.552;7.606;2023-12-07T09:12:44;6.70;99.90
20985;DHT22;10651;47.552;7.606;2023-12-07T09:15:11;6.50;99.90
20985;DHT22;10651;47.552;7.606;2023-12-07T09:17:38;6.30;99.90
20985;DHT22;10651;47.552;7.606;2023-12-07T09:20:06;6.20;99.90
20985;DHT22;10651;47.552;7.606;2023-12-07T09:22:38;6.30;99.90
20985;DHT22;10651;47.552;7.606;2023-12-07T09:25:04;6.40;99.90
20985;DHT22;10651;47.552;7.606;2023-12-07T09:27:30;6.50;99.90
20985;DHT22;10651;47.552;7.606;2023-12-07T09:29:58;6.60;99.90
20985;DHT22;10651;47.552;7.606;2023-12-07T09:32:24;6.50;99.90
20985;DHT22;10651;47.552;7.606;2023-12-07T09:34:49;6.60;99.90
20985;DHT22;10651;47.552;7.606;2023-12-07T09:37:16;6.70;99.90
20985;DHT22;10651;47.552;7.606;2023-12-07T09:39:42;6.90;99.90
20985;DHT22;10651;47.552;7.606;2023-12-07T09:42:08;6.90;99.90
20985;DHT22;10651;47.552;7.606;2023-12-07T09:44:34;7.00;99.90
20985;DHT22;10651;47.552;7.606;2023-12-07T09:46:59;7.00;99.90
20985;DHT22;10651;47.552;7.606;2023-12-07T09:49:25;7.10;99.90
20985;DHT22;10651;47.552;7.606;2023-12-07T09:51:51;7.10;99.90
20985;DHT22;10651;47.552;7.606;2023-12-07T09:54:18;6.90;99.90
20985;DHT22;10651;47.552;7.606;2023-12-07T09:56:45;6.90;99.90
20985;DHT22;10651;47.552;7.606;2023-12-07T09:59:11;7.00;99.90
20985;DHT22;10651;47.552;7.606;2023-12-07T10:01:37;6.60;99.90
20985;DHT22;10651;47.552;7.606;2023-12-07T10:04:21;6.40;99.90
20985;DHT22;10651;47.552;7.606;2023-12-07T10:06:52;6.40;99.90
20985;DHT22;10651;47.552;7.606;2023-12-07T10:09:20;6.40;99.90
20985;DHT22;10651;47.552;7.606;2023-12-07T10:11:48;6.40;99.90
20985;DHT22;10651;47.552;7.606;2023-12-07T10:14:14;6.30;99.90
20985;DHT22;10651;47.552;7.606;2023-12-07T10:16:54;6.30;99.90
20985;DHT22;10651;47.552;7.606;2023-12-07T10:19:24;6.20;99.90
20985;DHT22;10651;47.552;7.606;2023-12-07T10:21:51;6.20;99.90
20985;DHT22;10651;47.552;7.606;2023-12-07T10:24:22;6.20;99.90
20985;DHT22;10651;47.552;7.606;2023-12-07T10:26:49;6.30;99.90
20985;DHT22;10651;47.552;7.606;2023-12-07T10:29:18;6.30;99.90
20985;DHT22;10651;47.552;7.606;2023-12-07T10:31:45;6.20;99.90
20985;DHT22;10651;47.552;7.606;2023-12-07T10:34:12;6.20;99.90
20985;DHT22;10651;47.552;7.606;2023-12-07T10:36:38;6.30;99.90
20985;DHT22;10651;47.552;7.606;2023-12-07T10:39:04;6.40;99.90
20985;DHT22;10651;47.552;7.606;2023-12-07T10:41:33;6.30;99.90
20985;DHT22;10651;47.552;7.606;2023-12-07T10:44:03;6.00;99.90
20985;DHT22;10651;47.552;7.606;2023-12-07T10:46:29;5.90;99.90
20985;DHT22;10651;47.552;7.606;2023-12-07T10:49:03;6.00;99.90
20985;DHT22;10651;47.552;7.606;2023-12-07T10:51:41;6.10;99.90
20985;DHT22;10651;47.552;7.606;2023-12-07T10:54:07;6.10;99.90
20985;DHT22;10651;47.552;7.606;2023-12-07T10:56:44;6.20;99.90
20985;DHT22;10651;47.552;7.606;2023-12-07T10:59:11;6.10;99.90
20985;DHT22;10651;47.552;7.606;2023-12-07T11:01:42;6.30;99.90
20985;DHT22;10651;47.552;7.606;2023-12-07T11:04:12;6.30;99.90
20985;DHT22;10651;47.552;7.606;2023-12-07T11:06:39;6.30;99.90
20985;DHT22;10651;47.552;7.606;2023-12-07T11:09:13;6.10;99.90
20985;DHT22;10651;47.552;7.606;2023-12-07T11:11:51;6.00;99.90
20985;DHT22;10651;47.552;7.606;2023-12-07T11:14:18;6.00;99.90
20985;DHT22;10651;47.552;7.606;2023-12-07T11:16:46;6.00;99.90
20985;DHT22;10651;47.552;7.606;2023-12-07T11:22:06;6.20;99.90
20985;DHT22;10651;47.552;7.606;2023-12-07T11:24:32;6.20;99.90
20985;DHT22;10651;47.552;7.606;2023-12-07T11:26:58;6.40;99.90
20985;DHT22;10651;47.552;7.606;2023-12-07T11:29:24;6.10;99.90
20985;DHT22;10651;47.552;7.606;2023-12-07T11:31:51;6.20;99.90
20985;DHT22;10651;47.552;7.606;2023-12-07T11:34:36;6.30;99.90
20985;DHT22;10651;47.552;7.606;2023-12-07T11:37:03;6.50;99.90
20985;DHT22;10651;47.552;7.606;2023-12-07T11:39:29;6.60;99.90
20985;DHT22;10651;47.552;7.606;2023-12-07T11:42:07;6.60;99.90
20985;DHT22;10651;47.552;7.606;2023-12-07T11:44:34;6.40;99.90
20985;DHT22;10651;47.552;7.606;2023-12-07T11:47:03;6.30;99.90
20985;DHT22;10651;47.552;7.606;2023-12-07T11:49:31;6.30;99.90
20985;DHT22;10651;47.552;7.606;2023-12-07T11:51:58;6.40;99.90
20985;DHT22;10651;47.552;7.606;2023-12-07T11:54:25;8.40;99.90
20985;DHT22;10651;47.552;7.606;2023-12-07T11:56:55;11.80;99.90
20985;DHT22;10651;47.552;7.606;2023-12-07T11:59:21;13.10;99.90
20985;DHT22;10651;47.552;7.606;2023-12-07T12:01:49;13.50;99.90
20985;DHT22;10651;47.552;7.606;2023-12-07T12:04:15;14.20;99.90
20985;DHT22;10651;47.552;7.606;2023-12-07T12:06:46;15.80;99.90
20985;DHT22;10651;47.552;7.606;2023-12-07T12:09:13;15.70;99.90
20985;DHT22;10651;47.552;7.606;2023-12-07T12:11:49;15.90;99.90
20985;DHT22;10651;47.552;7.606;2023-12-07T12:14:15;15.70;99.90
20985;DHT22;10651;47.552;7.606;2023-12-07T12:16:46;14.30;99.90
20985;DHT22;10651;47.552;7.606;2023-12-07T12:19:12;12.40;99.90
20985;DHT22;10651;47.552;7.606;2023-12-07T12:21:40;11.70;99.90
20985;DHT22;10651;47.552;7.606;2023-12-07T12:24:10;11.30;99.90
20985;DHT22;10651;47.552;7.606;2023-12-07T12:26:42;11.70;99.90
20985;DHT22;10651;47.552;7.606;2023-12-07T12:29:08;11.50;99.90
20985;DHT22;10651;47.552;7.606;2023-12-07T12:31:35;10.90;99.90
20985;DHT22;10651;47.552;7.606;2023-12-07T12:34:02;10.30;99.90
20985;DHT22;10651;47.552;7.606;2023-12-07T12:36:27;10.10;99.90
20985;DHT22;10651;47.552;7.606;2023-12-07T12:38:55;10.10;99.90
20985;DHT22;10651;47.552;7.606;2023-12-07T12:41:24;10.00;99.90
20985;DHT22;10651;47.552;7.606;2023-12-07T12:43:51;9.80;99.90
20985;DHT22;10651;47.552;7.606;2023-12-07T12:46:18;9.30;99.90
20985;DHT22;10651;47.552;7.606;2023-12-07T12:49:01;8.90;99.90
20985;DHT22;10651;47.552;7.606;2023-12-07T12:51:30;8.50;99.90
20985;DHT22;10651;47.552;7.606;2023-12-07T12:54:00;8.30;99.90
20985;DHT22;10651;47.552;7.606;2023-12-07T12:56:27;8.40;99.90
20985;DHT22;10651;47.552;7.606;2023-12-07T12:58:54;8.20;99.90
20985;DHT22;10651;47.552;7.606;2023-12-07T13:01:22;7.90;99.90
20985;DHT22;10651;47.552;7.606;2023-12-07T13:03:48;7.90;99.90
20985;DHT22;10651;47.552;7.606;2023-12-07T13:06:15;7.80;99.90
20985;DHT22;10651;47.552;7.606;2023-12-07T13:08:43;7.80;99.90
20985;DHT22;10651;47.552;7.606;2023-12-07T13:11:09;7.90;99.90
20985;DHT22;10651;47.552;7.606;2023-12-07T13:13:35;7.80;99.90
20985;DHT22;10651;47.552;7.606;2023-12-07T13:16:00;7.70;99.90
20985;DHT22;10651;47.552;7.606;2023-12-07T13:18:26;7.60;99.90
20985;DHT22;10651;47.552;7.606;2023-12-07T13:20:51;7.70;99.90
20985;DHT22;10651;47.552;7.606;2023-12-07T13:23:17;7.70;99.90
20985;DHT22;10651;47.552;7.606;2023-12-07T13:25:43;7.70;99.90
20985;DHT22;10651;47.552;7.606;2023-12-07T13:28:08;7.60;99.90
20985;DHT22;10651;47.552;7.606;2023-12-07T13:30:34;7.50;99.90
20985;DHT22;10651;47.552;7.606;2023-12-07T13:33:01;7.40;99.90
20985;DHT22;10651;47.552;7.606;2023-12-07T13:35:29;7.10;99.90
20985;DHT22;10651;47.552;7.606;2023-12-07T13:37:55;7.20;99.90
20985;DHT22;10651;47.552;7.606;2023-12-07T13:40:20;7.10;99.90
20985;DHT22;10651;47.552;7.606;2023-12-07T13:42:46;7.10;99.90
20985;DHT22;10651;47.552;7.606;2023-12-07T13:45:12;7.00;99.90
20985;DHT22;10651;47.552;7.606;2023-12-07T13:47:38;6.80;99.90
20985;DHT22;10651;47.552;7.606;2023-12-07T13:50:05;6.90;99.90
20985;DHT22;10651;47.552;7.606;2023-12-07T13:52:31;6.90;99.90
20985;DHT22;10651;47.552;7.606;2023-12-07T13:54:57;6.70;99.90
20985;DHT22;10651;47.552;7.606;2023-12-07T13:57:23;6.70;99.90
20985;DHT22;10651;47.552;7.606;2023-12-07T13:59:50;6.70;99.90
20985;DHT22;10651;47.552;7.606;2023-12-07T14:02:16;6.70;99.90
20985;DHT22;10651;47.552;7.606;2023-12-07T14:04:42;6.60;99.90
20985;DHT22;10651;47.552;7.606;2023-12-07T14:07:16;6.50;99.90
20985;DHT22;10651;47.552;7.606;2023-12-07T14:09:44;6.30;99.90
20985;DHT22;10651;47.552;7.606;2023-12-07T14:12:10;6.30;99.90
20985;DHT22;10651;47.552;7.606;2023-12-07T14:14:47;6.30;99.90
20985;DHT22;10651;47.552;7.606;2023-12-07T14:17:15;6.30;99.90
20985;DHT22;10651;47.552;7.606;2023-12-07T14:19:41;6.20;99.90
20985;DHT22;10651;47.552;7.606;2023-12-07T14:22:07;6.30;99.90
20985;DHT22;10651;47.552;7.606;2023-12-07T14:24:35;6.40;99.90
20985;DHT22;10651;47.552;7.606;2023-12-07T14:27:02;6.60;99.90
20985;DHT22;10651;47.552;7.606;2023-12-07T14:29:29;6.50;99.90
20985;DHT22;10651;47.552;7.606;2023-12-07T14:31:55;6.60;99.90
20985;DHT22;10651;47.552;7.606;2023-12-07T14:34:21;6.60;99.90
20985;DHT22;10651;47.552;7.606;2023-12-07T14:36:47;6.70;99.90
20985;DHT22;10651;47.552;7.606;2023-12-07T14:39:13;6.50;99.90
20985;DHT22;10651;47.552;7.606;2023-12-07T14:41:49;6.60;99.90
20985;DHT22;10651;47.552;7.606;2023-12-07T14:44:16;6.50;99.90
20985;DHT22;10651;47.552;7.606;2023-12-07T14:46:46;6.40;99.90
20985;DHT22;10651;47.552;7.606;2023-12-07T14:49:13;6.40;99.90
20985;DHT22;10651;47.552;7.606;2023-12-07T14:51:39;6.30;99.90
20985;DHT22;10651;47.552;7.606;2023-12-07T14:54:06;6.30;99.90
20985;DHT22;10651;47.552;7.606;2023-12-07T14:56:32;6.10;99.90
20985;DHT22;10651;47.552;7.606;2023-12-07T14:59:00;6.10;99.90
20985;DHT22;10651;47.552;7.606;2023-12-07T15:01:26;6.10;99.90
20985;DHT22;10651;47.552;7.606;2023-12-07T15:03:51;5.90;99.90
20985;DHT22;10651;47.552;7.606;2023-12-07T15:06:17;5.80;99.90
20985;DHT22;10651;47.552;7.606;2023-12-07T15:08:43;5.80;99.90
20985;DHT22;10651;47.552;7.606;2023-12-07T15:11:09;5.70;99.90
20985;DHT22;10651;47.552;7.606;2023-12-07T15:13:36;5.50;99.90
20985;DHT22;10651;47.552;7.606;2023-12-07T15:16:02;5.50;99.90
20985;DHT22;10651;47.552;7.606;2023-12-07T15:18:29;5.50;99.90
20985;DHT22;10651;47.552;7.606;2023-12-07T15:20:57;5.40;99.90
20985;DHT22;10651;47.552;7.606;2023-12-07T15:23:22;5.20;99.90
20985;DHT22;10651;47.552;7.606;2023-12-07T15:25:48;5.30;99.90
20985;DHT22;10651;47.552;7.606;2023-12-07T15:28:14;5.20;99.90
20985;DHT22;10651;47.552;7.606;2023-12-07T15:30:40;5.20;99.90
20985;DHT22;10651;47.552;7.606;2023-12-07T15:33:06;5.10;99.90
20985;DHT22;10651;47.552;7.606;2023-12-07T15:35:32;5.00;99.90
20985;DHT22;10651;47.552;7.606;2023-12-07T15:37:58;4.90;99.90
20985;DHT22;10651;47.552;7.606;2023-12-07T15:40:23;5.00;99.90
20985;DHT22;10651;47.552;7.606;2023-12-07T15:42:49;5.00;99.90
20985;DHT22;10651;47.552;7.606;2023-12-07T15:45:15;5.00;99.90
20985;DHT22;10651;47.552;7.606;2023-12-07T15:47:40;5.10;99.90
20985;DHT22;10651;47.552;7.606;2023-12-07T15:50:06;5.20;99.90
20985;DHT22;10651;47.552;7.606;2023-12-07T15:52:32;5.20;99.90
20985;DHT22;10651;47.552;7.606;2023-12-07T15:54:59;5.20;99.90
20985;DHT22;10651;47.552;7.606;2023-12-07T15:57:24;5.30;99.90
20985;DHT22;10651;47.552;7.606;2023-12-07T15:59:50;5.20;99.90
20985;DHT22;10651;47.552;7.606;2023-12-07T16:02:16;5.10;99.90
20985;DHT22;10651;47.552;7.606;2023-12-07T16:04:43;5.10;99.90
20985;DHT22;10651;47.552;7.606;2023-12-07T16:07:09;4.90;99.90
20985;DHT22;10651;47.552;7.606;2023-12-07T16:09:36;4.60;99.90
20985;DHT22;10651;47.552;7.606;2023-12-07T16:12:03;4.60;99.90
20985;DHT22;10651;47.552;7.606;2023-12-07T16:14:30;4.60;99.90
20985;DHT22;10651;47.552;7.606;2023-12-07T16:16:56;4.50;99.90
20985;DHT22;10651;47.552;7.606;2023-12-07T16:19:21;4.50;99.90
20985;DHT22;10651;47.552;7.606;2023-12-07T16:21:47;4.50;99.90
20985;DHT22;10651;47.552;7.606;2023-12-07T16:24:13;4.60;99.90
20985;DHT22;10651;47.552;7.606;2023-12-07T16:26:39;4.60;99.90
20985;DHT22;10651;47.552;7.606;2023-12-07T16:29:05;4.60;99.90
20985;DHT22;10651;47.552;7.606;2023-12-07T16:31:31;4.50;99.90
20985;DHT22;10651;47.552;7.606;2023-12-07T16:33:57;4.40;99.90
20985;DHT22;10651;47.552;7.606;2023-12-07T16:36:23;4.40;99.90
20985;DHT22;10651;47.552;7.606;2023-12-07T16:38:50;4.30;99.90
20985;DHT22;10651;47.552;7.606;2023-12-07T16:41:16;4.30;99.90
20985;DHT22;10651;47.552;7.606;2023-12-07T16:43:42;4.20;99.90
20985;DHT22;10651;47.552;7.606;2023-12-07T16:46:08;4.10;99.90
20985;DHT22;10651;47.552;7.606;2023-12-07T16:48:34;4.20;99.90
20985;DHT22;10651;47.552;7.606;2023-12-07T16:51:00;4.10;99.90
20985;DHT22;10651;47.552;7.606;2023-12-07T16:53:26;4.30;99.90
20985;DHT22;10651;47.552;7.606;2023-12-07T16:55:53;4.80;99.90
20985;DHT22;10651;47.552;7.606;2023-12-07T16:58:19;4.60;99.90
20985;DHT22;10651;47.552;7.606;2023-12-07T17:00:46;4.30;99.90
20985;DHT22;10651;47.552;7.606;2023-12-07T17:03:11;4.30;99.90
20985;DHT22;10651;47.552;7.606;2023-12-07T17:05:38;4.20;99.90
20985;DHT22;10651;47.552;7.606;2023-12-07T17:08:06;4.10;99.90
20985;DHT22;10651;47.552;7.606;2023-12-07T17:10:33;4.10;99.90
20985;DHT22;10651;47.552;7.606;2023-12-07T17:12:58;4.10;99.90
20985;DHT22;10651;47.552;7.606;2023-12-07T17:15:26;4.10;99.90
20985;DHT22;10651;47.552;7.606;2023-12-07T17:17:52;4.10;99.90
20985;DHT22;10651;47.552;7.606;2023-12-07T17:20:18;4.00;99.90
20985;DHT22;10651;47.552;7.606;2023-12-07T17:22:43;4.00;99.90
20985;DHT22;10651;47.552;7.606;2023-12-07T17:25:09;3.90;99.90
20985;DHT22;10651;47.552;7.606;2023-12-07T17:27:35;3.90;99.90
20985;DHT22;10651;47.552;7.606;2023-12-07T17:30:01;3.90;99.90
20985;DHT22;10651;47.552;7.606;2023-12-07T17:32:27;3.90;99.90
20985;DHT22;10651;47.552;7.606;2023-12-07T17:34:53;3.80;99.90
20985;DHT22;10651;47.552;7.606;2023-12-07T17:37:19;3.80;99.90
20985;DHT22;10651;47.552;7.606;2023-12-07T17:39:46;3.80;99.90
20985;DHT22;10651;47.552;7.606;2023-12-07T17:42:11;3.80;99.90
20985;DHT22;10651;47.552;7.606;2023-12-07T17:44:37;3.80;99.90
20985;DHT22;10651;47.552;7.606;2023-12-07T17:47:03;3.90;99.90
20985;DHT22;10651;47.552;7.606;2023-12-07T17:49:29;4.50;99.90
20985;DHT22;10651;47.552;7.606;2023-12-07T17:51:55;4.30;99.90
20985;DHT22;10651;47.552;7.606;2023-12-07T17:54:21;4.20;99.90
20985;DHT22;10651;47.552;7.606;2023-12-07T17:56:50;4.10;99.90
20985;DHT22;10651;47.552;7.606;2023-12-07T17:59:16;4.10;99.90
20985;DHT22;10651;47.552;7.606;2023-12-07T18:01:42;4.20;99.90
20985;DHT22;10651;47.552;7.606;2023-12-07T18:04:08;4.20;99.90
20985;DHT22;10651;47.552;7.606;2023-12-07T18:06:34;4.20;99.90
20985;DHT22;10651;47.552;7.606;2023-12-07T18:09:00;4.20;99.90
20985;DHT22;10651;47.552;7.606;2023-12-07T18:11:26;4.20;99.90
20985;DHT22;10651;47.552;7.606;2023-12-07T18:13:52;4.20;99.90
20985;DHT22;10651;47.552;7.606;2023-12-07T18:16:18;4.30;99.90
20985;DHT22;10651;47.552;7.606;2023-12-07T18:18:44;4.50;99.90
20985;DHT22;10651;47.552;7.606;2023-12-07T18:21:10;4.50;99.90
20985;DHT22;10651;47.552;7.606;2023-12-07T18:23:36;4.40;99.90
20985;DHT22;10651;47.552;7.606;2023-12-07T18:26:02;4.50;99.90
20985;DHT22;10651;47.552;7.606;2023-12-07T18:28:28;4.50;99.90
20985;DHT22;10651;47.552;7.606;2023-12-07T18:30:53;4.40;99.90
20985;DHT22;10651;47.552;7.606;2023-12-07T18:33:19;4.30;99.90
20985;DHT22;10651;47.552;7.606;2023-12-07T18:35:44;4.20;99.90
20985;DHT22;10651;47.552;7.606;2023-12-07T18:38:10;4.20;99.90
20985;DHT22;10651;47.552;7.606;2023-12-07T18:40:36;4.20;99.90
20985;DHT22;10651;47.552;7.606;2023-12-07T18:43:08;4.20;99.90
20985;DHT22;10651;47.552;7.606;2023-12-07T18:45:35;4.20;99.90
20985;DHT22;10651;47.552;7.606;2023-12-07T18:48:01;4.20;99.90
20985;DHT22;10651;47.552;7.606;2023-12-07T18:50:27;4.20;99.90
20985;DHT22;10651;47.552;7.606;2023-12-07T18:52:52;4.20;99.90
20985;DHT22;10651;47.552;7.606;2023-12-07T18:55:18;4.20;99.90
20985;DHT22;10651;47.552;7.606;2023-12-07T18:57:47;4.20;99.90
20985;DHT22;10651;47.552;7.606;2023-12-07T19:00:15;4.20;99.90
20985;DHT22;10651;47.552;7.606;2023-12-07T19:02:41;4.30;99.90
20985;DHT22;10651;47.552;7.606;2023-12-07T19:05:10;4.30;99.90
20985;DHT22;10651;47.552;7.606;2023-12-07T19:07:37;4.30;99.90
20985;DHT22;10651;47.552;7.606;2023-12-07T19:10:03;4.30;99.90
20985;DHT22;10651;47.552;7.606;2023-12-07T19:12:29;4.30;99.90
20985;DHT22;10651;47.552;7.606;2023-12-07T19:14:56;4.90;99.90
20985;DHT22;10651;47.552;7.606;2023-12-07T19:17:22;5.60;99.90
20985;DHT22;10651;47.552;7.606;2023-12-07T19:19:47;5.40;99.90
20985;DHT22;10651;47.552;7.606;2023-12-07T19:22:13;5.20;99.90
20985;DHT22;10651;47.552;7.606;2023-12-07T19:24:39;5.20;99.90
20985;DHT22;10651;47.552;7.606;2023-12-07T19:27:05;5.00;99.90
20985;DHT22;10651;47.552;7.606;2023-12-07T19:29:30;4.80;99.90
20985;DHT22;10651;47.552;7.606;2023-12-07T19:31:59;4.70;99.90
20985;DHT22;10651;47.552;7.606;2023-12-07T19:34:25;4.70;99.90
20985;DHT22;10651;47.552;7.606;2023-12-07T19:36:55;4.70;99.90
20985;DHT22;10651;47.552;7.606;2023-12-07T19:39:22;4.80;99.90
20985;DHT22;10651;47.552;7.606;2023-12-07T19:41:48;4.70;99.90
20985;DHT22;10651;47.552;7.606;2023-12-07T19:44:15;4.80;99.90
20985;DHT22;10651;47.552;7.606;2023-12-07T19:46:41;4.70;99.90
20985;DHT22;10651;47.552;7.606;2023-12-07T19:49:10;4.70;99.90
20985;DHT22;10651;47.552;7.606;2023-12-07T19:51:36;5.10;99.90
20985;DHT22;10651;47.552;7.606;2023-12-07T19:54:01;5.20;99.90
20985;DHT22;10651;47.552;7.606;2023-12-07T19:56:28;5.30;99.90
20985;DHT22;10651;47.552;7.606;2023-12-07T19:58:55;5.30;99.90
20985;DHT22;10651;47.552;7.606;2023-12-07T20:01:24;5.10;99.90
20985;DHT22;10651;47.552;7.606;2023-12-07T20:03:51;4.90;99.90
20985;DHT22;10651;47.552;7.606;2023-12-07T20:06:18;4.80;99.90
20985;DHT22;10651;47.552;7.606;2023-12-07T20:08:44;4.80;99.90
20985;DHT22;10651;47.552;7.606;2023-12-07T20:11:17;4.80;99.90
20985;DHT22;10651;47.552;7.606;2023-12-07T20:13:44;4.80;99.90
20985;DHT22;10651;47.552;7.606;2023-12-07T20:16:15;4.70;99.90
20985;DHT22;10651;47.552;7.606;2023-12-07T20:18:41;4.70;99.90
20985;DHT22;10651;47.552;7.606;2023-12-07T20:21:07;4.70;99.90
20985;DHT22;10651;47.552;7.606;2023-12-07T20:23:33;4.60;99.90
20985;DHT22;10651;47.552;7.606;2023-12-07T20:25:58;4.60;99.90
20985;DHT22;10651;47.552;7.606;2023-12-07T20:28:24;4.50;99.90
20985;DHT22;10651;47.552;7.606;2023-12-07T20:30:50;4.50;99.90
20985;DHT22;10651;47.552;7.606;2023-12-07T20:33:15;4.50;99.90
20985;DHT22;10651;47.552;7.606;2023-12-07T20:35:41;4.50;99.90
20985;DHT22;10651;47.552;7.606;2023-12-07T20:38:07;4.50;99.90
20985;DHT22;10651;47.552;7.606;2023-12-07T20:40:34;4.50;99.90
20985;DHT22;10651;47.552;7.606;2023-12-07T20:42:59;4.60;99.90
20985;DHT22;10651;47.552;7.606;2023-12-07T20:45:25;4.50;99.90
20985;DHT22;10651;47.552;7.606;2023-12-07T20:48:01;4.50;99.90
20985;DHT22;10651;47.552;7.606;2023-12-07T20:50:28;4.40;99.90
20985;DHT22;10651;47.552;7.606;2023-12-07T20:52:58;4.50;99.90
20985;DHT22;10651;47.552;7.606;2023-12-07T20:55:28;4.50;99.90
20985;DHT22;10651;47.552;7.606;2023-12-07T20:57:58;4.50;99.90
20985;DHT22;10651;47.552;7.606;2023-12-07T21:00:24;4.50;99.90
20985;DHT22;10651;47.552;7.606;2023-12-07T21:02:50;4.50;99.90
20985;DHT22;10651;47.552;7.606;2023-12-07T21:05:15;4.50;99.90
20985;DHT22;10651;47.552;7.606;2023-12-07T21:07:41;4.50;99.90
20985;DHT22;10651;47.552;7.606;2023-12-07T21:10:07;4.50;99.90
20985;DHT22;10651;47.552;7.606;2023-12-07T21:12:33;4.50;99.90
20985;DHT22;10651;47.552;7.606;2023-12-07T21:14:58;4.50;99.90
20985;DHT22;10651;47.552;7.606;2023-12-07T21:17:24;4.60;99.90
20985;DHT22;10651;47.552;7.606;2023-12-07T21:19:52;4.60;99.90
20985;DHT22;10651;47.552;7.606;2023-12-07T21:22:20;4.60;99.90
20985;DHT22;10651;47.552;7.606;2023-12-07T21:24:48;4.50;99.90
20985;DHT22;10651;47.552;7.606;2023-12-07T21:27:17;4.50;99.90
20985;DHT22;10651;47.552;7.606;2023-12-07T21:29:45;4.50;99.90
20985;DHT22;10651;47.552;7.606;2023-12-07T21:32:11;4.50;99.90
20985;DHT22;10651;47.552;7.606;2023-12-07T21:34:40;4.50;99.90
20985;DHT22;10651;47.552;7.606;2023-12-07T21:37:09;4.60;99.90
20985;DHT22;10651;47.552;7.606;2023-12-07T21:39:36;4.50;99.90
20985;DHT22;10651;47.552;7.606;2023-12-07T21:42:04;4.50;99.90
20985;DHT22;10651;47.552;7.606;2023-12-07T21:44:30;4.50;99.90
20985;DHT22;10651;47.552;7.606;2023-12-07T21:46:55;4.40;99.90
20985;DHT22;10651;47.552;7.606;2023-12-07T21:49:21;4.40;99.90
20985;DHT22;10651;47.552;7.606;2023-12-07T21:51:47;4.50;99.90
20985;DHT22;10651;47.552;7.606;2023-12-07T21:54:13;4.50;99.90
20985;DHT22;10651;47.552;7.606;2023-12-07T21:56:39;4.50;99.90
20985;DHT22;10651;47.552;7.606;2023-12-07T21:59:04;4.50;99.90
20985;DHT22;10651;47.552;7.606;2023-12-07T22:01:30;4.50;99.90
20985;DHT22;10651;47.552;7.606;2023-12-07T22:03:56;4.50;99.90
